sensor_id;sensor_type;location;lat;lon;timestamp;P1;P4;P2;P0;N10;N4;N25;N1;N05;TS
62702;SPS30;66022;50.448;18.122;2023-03-17T00:00:26;66.50;;61.37;;;;;;;
62702;SPS30;66022;50.448;18.122;2023-03-17T00:04:30;68.66;;61.85;;;;;;;
62702;SPS30;66022;50.448;18.122;2023-03-17T00:08:34;68.66;;61.85;;;;;;;
62702;SPS30;66022;50.448;18.122;2023-03-17T00:12:37;68.66;;61.85;;;;;;;
62702;SPS30;66022;50.448;18.122;2023-03-17T00:16:43;62.87;;58.67;;;;;;;
62702;SPS30;66022;50.448;18.122;2023-03-17T00:20:46;62.87;;58.67;;;;;;;
62702;SPS30;66022;50.448;18.122;2023-03-17T00:24:50;77.75;;69.59;;;;;;;
62702;SPS30;66022;50.448;18.122;2023-03-17T00:28:54;77.75;;69.59;;;;;;;
62702;SPS30;66022;50.448;18.122;2023-03-17T00:32:59;77.75;;69.59;;;;;;;
62702;SPS30;66022;50.448;18.122;2023-03-17T00:37:02;66.33;;62.55;;;;;;;
62702;SPS30;66022;50.448;18.122;2023-03-17T00:41:07;66.33;;62.55;;;;;;;
62702;SPS30;66022;50.448;18.122;2023-03-17T00:45:10;63.27;;60.46;;;;;;;
62702;SPS30;66022;50.448;18.122;2023-03-17T00:49:15;63.27;;60.46;;;;;;;
62702;SPS30;66022;50.448;18.122;2023-03-17T00:53:18;63.27;;60.46;;;;;;;
62702;SPS30;66022;50.448;18.122;2023-03-17T00:57:22;64.39;;60.81;;;;;;;
62702;SPS30;66022;50.448;18.122;2023-03-17T01:01:26;64.39;;60.81;;;;;;;
62702;SPS30;66022;50.448;18.122;2023-03-17T01:05:30;61.42;;58.83;;;;;;;
62702;SPS30;66022;50.448;18.122;2023-03-17T01:09:34;61.42;;58.83;;;;;;;
62702;SPS30;66022;50.448;18.122;2023-03-17T01:13:38;61.42;;58.83;;;;;;;
62702;SPS30;66022;50.448;18.122;2023-03-17T01:17:42;60.43;;56.77;;;;;;;
62702;SPS30;66022;50.448;18.122;2023-03-17T01:21:46;60.43;;56.77;;;;;;;
62702;SPS30;66022;50.448;18.122;2023-03-17T01:25:49;67.30;;61.64;;;;;;;
62702;SPS30;66022;50.448;18.122;2023-03-17T01:29:53;67.30;;61.64;;;;;;;
62702;SPS30;66022;50.448;18.122;2023-03-17T01:33:58;67.30;;61.64;;;;;;;
62702;SPS30;66022;50.448;18.122;2023-03-17T01:38:02;61.19;;57.58;;;;;;;
62702;SPS30;66022;50.448;18.122;2023-03-17T01:42:06;61.19;;57.58;;;;;;;
62702;SPS30;66022;50.448;18.122;2023-03-17T01:50:13;67.23;;62.71;;;;;;;
62702;SPS30;66022;50.448;18.122;2023-03-17T01:54:28;62.11;;59.71;;;;;;;
62702;SPS30;66022;50.448;18.122;2023-03-17T01:58:22;62.11;;59.71;;;;;;;
62702;SPS30;66022;50.448;18.122;2023-03-17T02:02:29;62.11;;59.71;;;;;;;
62702;SPS30;66022;50.448;18.122;2023-03-17T02:06:30;74.30;;68.60;;;;;;;
62702;SPS30;66022;50.448;18.122;2023-03-17T02:10:34;74.30;;68.60;;;;;;;
62702;SPS30;66022;50.448;18.122;2023-03-17T02:14:38;73.46;;68.90;;;;;;;
62702;SPS30;66022;50.448;18.122;2023-03-17T02:18:42;73.46;;68.90;;;;;;;
62702;SPS30;66022;50.448;18.122;2023-03-17T02:22:47;73.46;;68.90;;;;;;;
62702;SPS30;66022;50.448;18.122;2023-03-17T02:26:50;80.59;;73.38;;;;;;;
62702;SPS30;66022;50.448;18.122;2023-03-17T02:30:56;80.59;;73.38;;;;;;;
62702;SPS30;66022;50.448;18.122;2023-03-17T02:35:03;75.98;;71.93;;;;;;;
62702;SPS30;66022;50.448;18.122;2023-03-17T02:39:04;75.98;;71.93;;;;;;;
62702;SPS30;66022;50.448;18.122;2023-03-17T02:43:06;75.98;;71.93;;;;;;;
62702;SPS30;66022;50.448;18.122;2023-03-17T02:47:10;75.20;;70.97;;;;;;;
62702;SPS30;66022;50.448;18.122;2023-03-17T02:51:14;75.20;;70.97;;;;;;;
62702;SPS30;66022;50.448;18.122;2023-03-17T02:55:18;81.16;;75.97;;;;;;;
62702;SPS30;66022;50.448;18.122;2023-03-17T02:59:22;81.16;;75.97;;;;;;;
62702;SPS30;66022;50.448;18.122;2023-03-17T03:03:25;81.16;;75.97;;;;;;;
62702;SPS30;66022;50.448;18.122;2023-03-17T03:07:29;82.58;;77.28;;;;;;;
62702;SPS30;66022;50.448;18.122;2023-03-17T03:11:34;82.58;;77.28;;;;;;;
62702;SPS30;66022;50.448;18.122;2023-03-17T03:15:39;79.35;;76.03;;;;;;;
62702;SPS30;66022;50.448;18.122;2023-03-17T03:19:41;79.35;;76.03;;;;;;;
62702;SPS30;66022;50.448;18.122;2023-03-17T03:23:46;79.35;;76.03;;;;;;;
62702;SPS30;66022;50.448;18.122;2023-03-17T03:27:49;75.75;;71.98;;;;;;;
62702;SPS30;66022;50.448;18.122;2023-03-17T03:31:54;75.75;;71.98;;;;;;;
62702;SPS30;66022;50.448;18.122;2023-03-17T03:35:58;71.72;;67.67;;;;;;;
62702;SPS30;66022;50.448;18.122;2023-03-17T03:40:02;71.72;;67.67;;;;;;;
62702;SPS30;66022;50.448;18.122;2023-03-17T03:44:05;71.72;;67.67;;;;;;;
62702;SPS30;66022;50.448;18.122;2023-03-17T03:48:10;73.36;;69.33;;;;;;;
62702;SPS30;66022;50.448;18.122;2023-03-17T03:52:14;73.36;;69.33;;;;;;;
62702;SPS30;66022;50.448;18.122;2023-03-17T03:56:18;69.23;;64.17;;;;;;;
62702;SPS30;66022;50.448;18.122;2023-03-17T04:00:22;69.23;;64.17;;;;;;;
62702;SPS30;66022;50.448;18.122;2023-03-17T04:04:26;63.28;;60.64;;;;;;;
62702;SPS30;66022;50.448;18.122;2023-03-17T04:08:30;63.28;;60.64;;;;;;;
62702;SPS30;66022;50.448;18.122;2023-03-17T04:12:34;63.28;;60.64;;;;;;;
62702;SPS30;66022;50.448;18.122;2023-03-17T04:16:37;60.62;;58.99;;;;;;;
62702;SPS30;66022;50.448;18.122;2023-03-17T04:20:42;60.62;;58.99;;;;;;;
62702;SPS30;66022;50.448;18.122;2023-03-17T04:24:46;62.43;;58.56;;;;;;;
62702;SPS30;66022;50.448;18.122;2023-03-17T04:28:50;62.43;;58.56;;;;;;;
62702;SPS30;66022;50.448;18.122;2023-03-17T04:32:53;62.43;;58.56;;;;;;;
62702;SPS30;66022;50.448;18.122;2023-03-17T04:36:58;67.91;;62.56;;;;;;;
62702;SPS30;66022;50.448;18.122;2023-03-17T04:41:01;67.91;;62.56;;;;;;;
62702;SPS30;66022;50.448;18.122;2023-03-17T04:45:06;62.77;;60.64;;;;;;;
62702;SPS30;66022;50.448;18.122;2023-03-17T04:49:10;62.77;;60.64;;;;;;;
62702;SPS30;66022;50.448;18.122;2023-03-17T04:53:14;62.77;;60.64;;;;;;;
62702;SPS30;66022;50.448;18.122;2023-03-17T04:57:18;66.56;;62.41;;;;;;;
62702;SPS30;66022;50.448;18.122;2023-03-17T05:01:22;66.56;;62.41;;;;;;;
62702;SPS30;66022;50.448;18.122;2023-03-17T05:05:26;71.76;;65.38;;;;;;;
62702;SPS30;66022;50.448;18.122;2023-03-17T05:09:30;71.76;;65.38;;;;;;;
62702;SPS30;66022;50.448;18.122;2023-03-17T05:13:34;71.76;;65.38;;;;;;;
62702;SPS30;66022;50.448;18.122;2023-03-17T05:17:38;59.07;;55.83;;;;;;;
62702;SPS30;66022;50.448;18.122;2023-03-17T05:21:42;59.07;;55.83;;;;;;;
62702;SPS30;66022;50.448;18.122;2023-03-17T05:25:46;55.00;;53.60;;;;;;;
62702;SPS30;66022;50.448;18.122;2023-03-17T05:29:50;55.00;;53.60;;;;;;;
62702;SPS30;66022;50.448;18.122;2023-03-17T05:33:54;55.00;;53.60;;;;;;;
62702;SPS30;66022;50.448;18.122;2023-03-17T05:37:58;56.27;;52.95;;;;;;;
62702;SPS30;66022;50.448;18.122;2023-03-17T05:42:02;56.27;;52.95;;;;;;;
62702;SPS30;66022;50.448;18.122;2023-03-17T05:46:06;52.25;;49.81;;;;;;;
62702;SPS30;66022;50.448;18.122;2023-03-17T05:50:10;52.25;;49.81;;;;;;;
62702;SPS30;66022;50.448;18.122;2023-03-17T05:54:14;52.25;;49.81;;;;;;;
62702;SPS30;66022;50.448;18.122;2023-03-17T05:58:18;46.90;;44.69;;;;;;;
62702;SPS30;66022;50.448;18.122;2023-03-17T06:02:22;46.90;;44.69;;;;;;;
62702;SPS30;66022;50.448;18.122;2023-03-17T06:06:26;45.64;;44.10;;;;;;;
62702;SPS30;66022;50.448;18.122;2023-03-17T06:10:30;45.64;;44.10;;;;;;;
62702;SPS30;66022;50.448;18.122;2023-03-17T06:14:34;45.30;;43.23;;;;;;;
62702;SPS30;66022;50.448;18.122;2023-03-17T06:18:38;45.30;;43.23;;;;;;;
62702;SPS30;66022;50.448;18.122;2023-03-17T06:22:42;45.30;;43.23;;;;;;;
62702;SPS30;66022;50.448;18.122;2023-03-17T06:26:46;40.88;;40.14;;;;;;;
62702;SPS30;66022;50.448;18.122;2023-03-17T06:30:50;40.88;;40.14;;;;;;;
62702;SPS30;66022;50.448;18.122;2023-03-17T06:34:54;38.89;;37.91;;;;;;;
62702;SPS30;66022;50.448;18.122;2023-03-17T06:38:58;38.89;;37.91;;;;;;;
62702;SPS30;66022;50.448;18.122;2023-03-17T06:43:02;38.89;;37.91;;;;;;;
62702;SPS30;66022;50.448;18.122;2023-03-17T06:47:06;37.59;;36.80;;;;;;;
62702;SPS30;66022;50.448;18.122;2023-03-17T06:51:10;37.59;;36.80;;;;;;;
62702;SPS30;66022;50.448;18.122;2023-03-17T06:55:14;40.60;;39.25;;;;;;;
62702;SPS30;66022;50.448;18.122;2023-03-17T06:59:18;40.60;;39.25;;;;;;;
62702;SPS30;66022;50.448;18.122;2023-03-17T07:03:24;40.60;;39.25;;;;;;;
62702;SPS30;66022;50.448;18.122;2023-03-17T07:07:26;35.83;;35.67;;;;;;;
62702;SPS30;66022;50.448;18.122;2023-03-17T07:11:30;35.83;;35.67;;;;;;;
62702;SPS30;66022;50.448;18.122;2023-03-17T07:15:34;35.11;;33.76;;;;;;;
62702;SPS30;66022;50.448;18.122;2023-03-17T07:19:38;35.11;;33.76;;;;;;;
62702;SPS30;66022;50.448;18.122;2023-03-17T07:23:42;35.11;;33.76;;;;;;;
62702;SPS30;66022;50.448;18.122;2023-03-17T07:27:46;33.45;;32.32;;;;;;;
62702;SPS30;66022;50.448;18.122;2023-03-17T07:31:50;33.45;;32.32;;;;;;;
62702;SPS30;66022;50.448;18.122;2023-03-17T07:35:54;32.23;;31.29;;;;;;;
62702;SPS30;66022;50.448;18.122;2023-03-17T07:39:58;32.23;;31.29;;;;;;;
62702;SPS30;66022;50.448;18.122;2023-03-17T07:44:02;32.23;;31.29;;;;;;;
62702;SPS30;66022;50.448;18.122;2023-03-17T07:48:06;29.60;;27.62;;;;;;;
62702;SPS30;66022;50.448;18.122;2023-03-17T07:52:10;29.60;;27.62;;;;;;;
62702;SPS30;66022;50.448;18.122;2023-03-17T07:56:14;25.20;;23.78;;;;;;;
62702;SPS30;66022;50.448;18.122;2023-03-17T08:00:18;25.20;;23.78;;;;;;;
62702;SPS30;66022;50.448;18.122;2023-03-17T08:04:22;17.97;;17.97;;;;;;;
62702;SPS30;66022;50.448;18.122;2023-03-17T08:08:26;17.97;;17.97;;;;;;;
62702;SPS30;66022;50.448;18.122;2023-03-17T08:12:30;17.97;;17.97;;;;;;;
62702;SPS30;66022;50.448;18.122;2023-03-17T08:16:34;17.84;;17.40;;;;;;;
62702;SPS30;66022;50.448;18.122;2023-03-17T08:20:38;17.84;;17.40;;;;;;;
62702;SPS30;66022;50.448;18.122;2023-03-17T08:24:42;15.46;;15.46;;;;;;;
62702;SPS30;66022;50.448;18.122;2023-03-17T08:28:46;15.46;;15.46;;;;;;;
62702;SPS30;66022;50.448;18.122;2023-03-17T08:32:50;15.46;;15.46;;;;;;;
62702;SPS30;66022;50.448;18.122;2023-03-17T08:36:54;18.09;;16.84;;;;;;;
62702;SPS30;66022;50.448;18.122;2023-03-17T08:40:59;18.09;;16.84;;;;;;;
62702;SPS30;66022;50.448;18.122;2023-03-17T08:45:03;14.53;;14.34;;;;;;;
62702;SPS30;66022;50.448;18.122;2023-03-17T08:49:06;14.53;;14.34;;;;;;;
62702;SPS30;66022;50.448;18.122;2023-03-17T08:53:10;14.53;;14.34;;;;;;;
62702;SPS30;66022;50.448;18.122;2023-03-17T08:57:14;14.96;;14.00;;;;;;;
62702;SPS30;66022;50.448;18.122;2023-03-17T09:01:18;14.96;;14.00;;;;;;;
62702;SPS30;66022;50.448;18.122;2023-03-17T09:05:22;13.96;;13.53;;;;;;;
62702;SPS30;66022;50.448;18.122;2023-03-17T09:09:26;13.96;;13.53;;;;;;;
62702;SPS30;66022;50.448;18.122;2023-03-17T09:13:30;13.96;;13.53;;;;;;;
62702;SPS30;66022;50.448;18.122;2023-03-17T09:17:34;11.85;;11.85;;;;;;;
62702;SPS30;66022;50.448;18.122;2023-03-17T09:21:38;11.85;;11.85;;;;;;;
62702;SPS30;66022;50.448;18.122;2023-03-17T09:25:42;13.52;;13.52;;;;;;;
62702;SPS30;66022;50.448;18.122;2023-03-17T09:29:46;13.52;;13.52;;;;;;;
62702;SPS30;66022;50.448;18.122;2023-03-17T09:33:50;13.52;;13.52;;;;;;;
62702;SPS30;66022;50.448;18.122;2023-03-17T09:37:54;12.48;;12.45;;;;;;;
62702;SPS30;66022;50.448;18.122;2023-03-17T09:46:25;13.13;;13.02;;;;;;;
62702;SPS30;66022;50.448;18.122;2023-03-17T09:54:12;13.13;;13.02;;;;;;;
62702;SPS30;66022;50.448;18.122;2023-03-17T09:58:14;12.29;;12.15;;;;;;;
62702;SPS30;66022;50.448;18.122;2023-03-17T10:10:28;11.72;;11.72;;;;;;;
62702;SPS30;66022;50.448;18.122;2023-03-17T10:26:43;14.75;;13.76;;;;;;;
62702;SPS30;66022;50.448;18.122;2023-03-17T10:30:46;14.75;;13.76;;;;;;;
62702;SPS30;66022;50.448;18.122;2023-03-17T10:34:50;14.64;;13.99;;;;;;;
62702;SPS30;66022;50.448;18.122;2023-03-17T10:38:54;14.64;;13.99;;;;;;;
62702;SPS30;66022;50.448;18.122;2023-03-17T10:47:02;15.30;;14.47;;;;;;;
62702;SPS30;66022;50.448;18.122;2023-03-17T10:51:07;15.30;;14.47;;;;;;;
62702;SPS30;66022;50.448;18.122;2023-03-17T10:55:11;12.61;;12.55;;;;;;;
62702;SPS30;66022;50.448;18.122;2023-03-17T10:59:18;12.61;;12.55;;;;;;;
62702;SPS30;66022;50.448;18.122;2023-03-17T11:03:22;12.61;;12.55;;;;;;;
62702;SPS30;66022;50.448;18.122;2023-03-17T11:07:27;12.17;;12.17;;;;;;;
62702;SPS30;66022;50.448;18.122;2023-03-17T11:11:27;12.17;;12.17;;;;;;;
62702;SPS30;66022;50.448;18.122;2023-03-17T11:15:34;10.02;;10.02;;;;;;;
62702;SPS30;66022;50.448;18.122;2023-03-17T11:27:51;13.84;;13.08;;;;;;;
62702;SPS30;66022;50.448;18.122;2023-03-17T11:35:55;11.78;;10.77;;;;;;;
62702;SPS30;66022;50.448;18.122;2023-03-17T11:44:07;11.78;;10.77;;;;;;;
62702;SPS30;66022;50.448;18.122;2023-03-17T11:56:15;8.46;;8.33;;;;;;;
62702;SPS30;66022;50.448;18.122;2023-03-17T12:04:24;13.42;;11.48;;;;;;;
62702;SPS30;66022;50.448;18.122;2023-03-17T12:12:31;13.42;;11.48;;;;;;;
62702;SPS30;66022;50.448;18.122;2023-03-17T12:16:32;8.79;;8.23;;;;;;;
62702;SPS30;66022;50.448;18.122;2023-03-17T12:20:43;8.79;;8.23;;;;;;;
62702;SPS30;66022;50.448;18.122;2023-03-17T12:24:39;6.18;;6.18;;;;;;;
62702;SPS30;66022;50.448;18.122;2023-03-17T12:36:50;6.77;;6.77;;;;;;;
62702;SPS30;66022;50.448;18.122;2023-03-17T13:05:26;7.56;;7.24;;;;;;;
62702;SPS30;66022;50.448;18.122;2023-03-17T13:09:33;7.56;;7.24;;;;;;;
62702;SPS30;66022;50.448;18.122;2023-03-17T13:17:31;7.24;;7.24;;;;;;;
62702;SPS30;66022;50.448;18.122;2023-03-17T13:21:34;7.24;;7.24;;;;;;;
62702;SPS30;66022;50.448;18.122;2023-03-17T13:29:43;6.70;;6.70;;;;;;;
62702;SPS30;66022;50.448;18.122;2023-03-17T13:33:50;6.70;;6.70;;;;;;;
62702;SPS30;66022;50.448;18.122;2023-03-17T13:50:06;7.09;;6.80;;;;;;;
62702;SPS30;66022;50.448;18.122;2023-03-17T14:02:18;8.32;;7.83;;;;;;;
62702;SPS30;66022;50.448;18.122;2023-03-17T14:06:18;7.75;;7.75;;;;;;;
62702;SPS30;66022;50.448;18.122;2023-03-17T14:10:23;7.75;;7.75;;;;;;;
62702;SPS30;66022;50.448;18.122;2023-03-17T14:18:34;10.55;;10.00;;;;;;;
62702;SPS30;66022;50.448;18.122;2023-03-17T14:26:38;7.73;;7.73;;;;;;;
62702;SPS30;66022;50.448;18.122;2023-03-17T14:38:51;7.32;;7.21;;;;;;;
62702;SPS30;66022;50.448;18.122;2023-03-17T14:42:54;7.32;;7.21;;;;;;;
62702;SPS30;66022;50.448;18.122;2023-03-17T14:47:02;7.32;;7.32;;;;;;;
62702;SPS30;66022;50.448;18.122;2023-03-17T14:51:05;7.32;;7.32;;;;;;;
62702;SPS30;66022;50.448;18.122;2023-03-17T14:55:10;8.70;;8.24;;;;;;;
62702;SPS30;66022;50.448;18.122;2023-03-17T15:03:16;8.70;;8.24;;;;;;;
62702;SPS30;66022;50.448;18.122;2023-03-17T15:11:23;10.25;;9.48;;;;;;;
62702;SPS30;66022;50.448;18.122;2023-03-17T15:19:37;8.13;;8.13;;;;;;;
62702;SPS30;66022;50.448;18.122;2023-03-17T15:23:35;8.13;;8.13;;;;;;;
62702;SPS30;66022;50.448;18.122;2023-03-17T15:27:38;8.06;;7.67;;;;;;;
62702;SPS30;66022;50.448;18.122;2023-03-17T15:31:42;8.06;;7.67;;;;;;;
62702;SPS30;66022;50.448;18.122;2023-03-17T15:35:47;8.48;;8.19;;;;;;;
62702;SPS30;66022;50.448;18.122;2023-03-17T15:39:51;8.48;;8.19;;;;;;;
62702;SPS30;66022;50.448;18.122;2023-03-17T15:43:54;8.48;;8.19;;;;;;;
62702;SPS30;66022;50.448;18.122;2023-03-17T15:47:58;9.96;;9.43;;;;;;;
62702;SPS30;66022;50.448;18.122;2023-03-17T15:52:10;9.96;;9.43;;;;;;;
62702;SPS30;66022;50.448;18.122;2023-03-17T15:56:11;9.40;;9.18;;;;;;;
62702;SPS30;66022;50.448;18.122;2023-03-17T16:00:14;9.40;;9.18;;;;;;;
62702;SPS30;66022;50.448;18.122;2023-03-17T16:04:14;9.40;;9.18;;;;;;;
62702;SPS30;66022;50.448;18.122;2023-03-17T16:08:18;12.46;;11.27;;;;;;;
62702;SPS30;66022;50.448;18.122;2023-03-17T16:12:23;12.46;;11.27;;;;;;;
62702;SPS30;66022;50.448;18.122;2023-03-17T16:16:44;9.45;;9.10;;;;;;;
62702;SPS30;66022;50.448;18.122;2023-03-17T16:20:32;9.45;;9.10;;;;;;;
62702;SPS30;66022;50.448;18.122;2023-03-17T16:24:34;10.56;;10.31;;;;;;;
62702;SPS30;66022;50.448;18.122;2023-03-17T16:28:38;10.56;;10.31;;;;;;;
62702;SPS30;66022;50.448;18.122;2023-03-17T16:32:43;10.56;;10.31;;;;;;;
62702;SPS30;66022;50.448;18.122;2023-03-17T16:36:47;11.08;;10.86;;;;;;;
62702;SPS30;66022;50.448;18.122;2023-03-17T16:40:51;11.08;;10.86;;;;;;;
62702;SPS30;66022;50.448;18.122;2023-03-17T16:44:54;14.56;;13.32;;;;;;;
62702;SPS30;66022;50.448;18.122;2023-03-17T16:48:58;14.56;;13.32;;;;;;;
62702;SPS30;66022;50.448;18.122;2023-03-17T16:53:03;14.56;;13.32;;;;;;;
62702;SPS30;66022;50.448;18.122;2023-03-17T16:57:08;11.62;;11.23;;;;;;;
62702;SPS30;66022;50.448;18.122;2023-03-17T17:01:15;11.62;;11.23;;;;;;;
62702;SPS30;66022;50.448;18.122;2023-03-17T17:09:19;23.40;;19.66;;;;;;;
62702;SPS30;66022;50.448;18.122;2023-03-17T17:13:23;23.40;;19.66;;;;;;;
62702;SPS30;66022;50.448;18.122;2023-03-17T17:17:27;22.04;;20.72;;;;;;;
62702;SPS30;66022;50.448;18.122;2023-03-17T17:21:30;22.04;;20.72;;;;;;;
62702;SPS30;66022;50.448;18.122;2023-03-17T17:25:34;26.22;;24.52;;;;;;;
62702;SPS30;66022;50.448;18.122;2023-03-17T17:29:39;26.22;;24.52;;;;;;;
62702;SPS30;66022;50.448;18.122;2023-03-17T17:33:42;26.22;;24.52;;;;;;;
62702;SPS30;66022;50.448;18.122;2023-03-17T17:37:47;30.38;;26.56;;;;;;;
62702;SPS30;66022;50.448;18.122;2023-03-17T17:41:51;30.38;;26.56;;;;;;;
62702;SPS30;66022;50.448;18.122;2023-03-17T17:45:55;35.29;;32.25;;;;;;;
62702;SPS30;66022;50.448;18.122;2023-03-17T17:49:58;35.29;;32.25;;;;;;;
62702;SPS30;66022;50.448;18.122;2023-03-17T17:54:02;35.29;;32.25;;;;;;;
62702;SPS30;66022;50.448;18.122;2023-03-17T17:58:07;43.00;;36.06;;;;;;;
62702;SPS30;66022;50.448;18.122;2023-03-17T18:02:11;43.00;;36.06;;;;;;;
62702;SPS30;66022;50.448;18.122;2023-03-17T18:06:14;27.24;;25.08;;;;;;;
62702;SPS30;66022;50.448;18.122;2023-03-17T18:10:19;27.24;;25.08;;;;;;;
62702;SPS30;66022;50.448;18.122;2023-03-17T18:14:22;29.44;;26.75;;;;;;;
62702;SPS30;66022;50.448;18.122;2023-03-17T18:18:27;29.44;;26.75;;;;;;;
62702;SPS30;66022;50.448;18.122;2023-03-17T18:22:31;29.44;;26.75;;;;;;;
62702;SPS30;66022;50.448;18.122;2023-03-17T18:26:34;31.08;;27.59;;;;;;;
62702;SPS30;66022;50.448;18.122;2023-03-17T18:30:38;31.08;;27.59;;;;;;;
62702;SPS30;66022;50.448;18.122;2023-03-17T18:34:43;34.92;;30.59;;;;;;;
62702;SPS30;66022;50.448;18.122;2023-03-17T18:38:46;34.92;;30.59;;;;;;;
62702;SPS30;66022;50.448;18.122;2023-03-17T18:42:51;34.92;;30.59;;;;;;;
62702;SPS30;66022;50.448;18.122;2023-03-17T18:46:54;29.83;;28.46;;;;;;;
62702;SPS30;66022;50.448;18.122;2023-03-17T18:50:58;29.83;;28.46;;;;;;;
62702;SPS30;66022;50.448;18.122;2023-03-17T18:55:03;28.91;;27.59;;;;;;;
62702;SPS30;66022;50.448;18.122;2023-03-17T18:59:06;28.91;;27.59;;;;;;;
62702;SPS30;66022;50.448;18.122;2023-03-17T19:03:10;28.91;;27.59;;;;;;;
62702;SPS30;66022;50.448;18.122;2023-03-17T19:07:17;28.81;;26.36;;;;;;;
62702;SPS30;66022;50.448;18.122;2023-03-17T19:11:19;28.81;;26.36;;;;;;;
62702;SPS30;66022;50.448;18.122;2023-03-17T19:15:23;26.66;;25.32;;;;;;;
62702;SPS30;66022;50.448;18.122;2023-03-17T19:19:27;26.66;;25.32;;;;;;;
62702;SPS30;66022;50.448;18.122;2023-03-17T19:23:31;26.66;;25.32;;;;;;;
62702;SPS30;66022;50.448;18.122;2023-03-17T19:27:34;31.03;;28.31;;;;;;;
62702;SPS30;66022;50.448;18.122;2023-03-17T19:31:39;31.03;;28.31;;;;;;;
62702;SPS30;66022;50.448;18.122;2023-03-17T19:35:43;26.06;;24.07;;;;;;;
62702;SPS30;66022;50.448;18.122;2023-03-17T19:39:46;26.06;;24.07;;;;;;;
62702;SPS30;66022;50.448;18.122;2023-03-17T19:43:50;26.06;;24.07;;;;;;;
62702;SPS30;66022;50.448;18.122;2023-03-17T19:47:55;28.84;;25.70;;;;;;;
62702;SPS30;66022;50.448;18.122;2023-03-17T19:51:59;28.84;;25.70;;;;;;;
62702;SPS30;66022;50.448;18.122;2023-03-17T19:56:03;23.44;;21.60;;;;;;;
62702;SPS30;66022;50.448;18.122;2023-03-17T20:00:07;23.44;;21.60;;;;;;;
62702;SPS30;66022;50.448;18.122;2023-03-17T20:04:11;23.44;;21.60;;;;;;;
62702;SPS30;66022;50.448;18.122;2023-03-17T20:08:15;21.56;;20.68;;;;;;;
62702;SPS30;66022;50.448;18.122;2023-03-17T20:12:19;21.56;;20.68;;;;;;;
62702;SPS30;66022;50.448;18.122;2023-03-17T20:16:26;19.01;;18.30;;;;;;;
62702;SPS30;66022;50.448;18.122;2023-03-17T20:20:26;19.01;;18.30;;;;;;;
62702;SPS30;66022;50.448;18.122;2023-03-17T20:24:35;19.42;;18.17;;;;;;;
62702;SPS30;66022;50.448;18.122;2023-03-17T20:28:35;19.42;;18.17;;;;;;;
62702;SPS30;66022;50.448;18.122;2023-03-17T20:32:38;19.42;;18.17;;;;;;;
62702;SPS30;66022;50.448;18.122;2023-03-17T20:36:42;21.06;;19.06;;;;;;;
62702;SPS30;66022;50.448;18.122;2023-03-17T20:40:46;21.06;;19.06;;;;;;;
62702;SPS30;66022;50.448;18.122;2023-03-17T20:44:51;19.33;;18.17;;;;;;;
62702;SPS30;66022;50.448;18.122;2023-03-17T20:48:55;19.33;;18.17;;;;;;;
62702;SPS30;66022;50.448;18.122;2023-03-17T20:52:59;19.33;;18.17;;;;;;;
62702;SPS30;66022;50.448;18.122;2023-03-17T20:57:03;17.01;;16.66;;;;;;;
62702;SPS30;66022;50.448;18.122;2023-03-17T21:01:07;17.01;;16.66;;;;;;;
62702;SPS30;66022;50.448;18.122;2023-03-17T21:05:14;18.94;;17.43;;;;;;;
62702;SPS30;66022;50.448;18.122;2023-03-17T21:09:15;18.94;;17.43;;;;;;;
62702;SPS30;66022;50.448;18.122;2023-03-17T21:13:19;18.94;;17.43;;;;;;;
62702;SPS30;66022;50.448;18.122;2023-03-17T21:17:23;21.08;;18.77;;;;;;;
62702;SPS30;66022;50.448;18.122;2023-03-17T21:21:27;21.08;;18.77;;;;;;;
62702;SPS30;66022;50.448;18.122;2023-03-17T21:25:31;15.16;;15.10;;;;;;;
62702;SPS30;66022;50.448;18.122;2023-03-17T21:29:35;15.16;;15.10;;;;;;;
62702;SPS30;66022;50.448;18.122;2023-03-17T21:33:39;15.16;;15.10;;;;;;;
62702;SPS30;66022;50.448;18.122;2023-03-17T21:37:43;16.10;;15.40;;;;;;;
62702;SPS30;66022;50.448;18.122;2023-03-17T21:41:47;16.10;;15.40;;;;;;;
62702;SPS30;66022;50.448;18.122;2023-03-17T21:45:51;16.37;;16.30;;;;;;;
62702;SPS30;66022;50.448;18.122;2023-03-17T21:49:55;16.37;;16.30;;;;;;;
62702;SPS30;66022;50.448;18.122;2023-03-17T21:53:59;16.37;;16.30;;;;;;;
62702;SPS30;66022;50.448;18.122;2023-03-17T21:58:03;16.20;;15.76;;;;;;;
62702;SPS30;66022;50.448;18.122;2023-03-17T22:02:09;16.20;;15.76;;;;;;;
62702;SPS30;66022;50.448;18.122;2023-03-17T22:06:11;19.84;;17.82;;;;;;;
62702;SPS30;66022;50.448;18.122;2023-03-17T22:10:15;19.84;;17.82;;;;;;;
62702;SPS30;66022;50.448;18.122;2023-03-17T22:14:19;16.34;;15.81;;;;;;;
62702;SPS30;66022;50.448;18.122;2023-03-17T22:18:23;16.34;;15.81;;;;;;;
62702;SPS30;66022;50.448;18.122;2023-03-17T22:22:27;16.34;;15.81;;;;;;;
62702;SPS30;66022;50.448;18.122;2023-03-17T22:26:31;14.79;;14.79;;;;;;;
62702;SPS30;66022;50.448;18.122;2023-03-17T22:30:38;14.79;;14.79;;;;;;;
62702;SPS30;66022;50.448;18.122;2023-03-17T22:34:39;14.26;;13.86;;;;;;;
62702;SPS30;66022;50.448;18.122;2023-03-17T22:38:43;14.26;;13.86;;;;;;;
62702;SPS30;66022;50.448;18.122;2023-03-17T22:42:47;14.26;;13.86;;;;;;;
62702;SPS30;66022;50.448;18.122;2023-03-17T22:46:51;13.86;;13.86;;;;;;;
62702;SPS30;66022;50.448;18.122;2023-03-17T22:50:55;13.86;;13.86;;;;;;;
62702;SPS30;66022;50.448;18.122;2023-03-17T22:54:59;15.06;;15.01;;;;;;;
62702;SPS30;66022;50.448;18.122;2023-03-17T22:59:03;15.06;;15.01;;;;;;;
62702;SPS30;66022;50.448;18.122;2023-03-17T23:03:07;15.06;;15.01;;;;;;;
62702;SPS30;66022;50.448;18.122;2023-03-17T23:07:11;17.98;;17.64;;;;;;;
62702;SPS30;66022;50.448;18.122;2023-03-17T23:11:16;17.98;;17.64;;;;;;;
62702;SPS30;66022;50.448;18.122;2023-03-17T23:15:22;17.41;;17.41;;;;;;;
62702;SPS30;66022;50.448;18.122;2023-03-17T23:19:23;17.41;;17.41;;;;;;;
62702;SPS30;66022;50.448;18.122;2023-03-17T23:23:27;17.41;;17.41;;;;;;;
62702;SPS30;66022;50.448;18.122;2023-03-17T23:27:31;24.05;;22.87;;;;;;;
62702;SPS30;66022;50.448;18.122;2023-03-17T23:31:35;24.05;;22.87;;;;;;;
62702;SPS30;66022;50.448;18.122;2023-03-17T23:35:39;24.94;;24.34;;;;;;;
62702;SPS30;66022;50.448;18.122;2023-03-17T23:39:43;24.94;;24.34;;;;;;;
62702;SPS30;66022;50.448;18.122;2023-03-17T23:43:47;24.94;;24.34;;;;;;;
62702;SPS30;66022;50.448;18.122;2023-03-17T23:47:51;24.03;;22.87;;;;;;;
62702;SPS30;66022;50.448;18.122;2023-03-17T23:51:55;24.03;;22.87;;;;;;;
62702;SPS30;66022;50.448;18.122;2023-03-17T23:55:59;21.32;;21.28;;;;;;;
